Time;durP1;ratioP1;P1;durP2;ratioP2;P2;SDS_P1;SDS_P2;PMS_P1;PMS_P2;Temp;Humidity;BMP_temperature;BMP_pressure;BME280_temperature;BME280_humidity;BME280_pressure;Samples;Min_cycle;Max_cycle;Signal;HPM_P1;HPM_P2
2023/03/22 00:01:10;;;;;;;3.83;3.50;;;15.40;42.70;;;;;;20759;6827;117180;-74
2023/03/22 00:03:36;;;;;;;3.63;3.43;;;15.20;42.80;;;;;;20524;6828;307373;-72
2023/03/22 00:06:01;;;;;;;4.03;3.80;;;15.20;43.10;;;;;;20525;6828;309268;-73
2023/03/22 00:08:27;;;;;;;3.37;3.17;;;15.30;42.50;;;;;;20761;6828;121811;-73
2023/03/22 00:10:52;;;;;;;4.30;3.70;;;15.10;42.50;;;;;;20555;6828;282523;-72
2023/03/22 00:13:18;;;;;;;3.73;3.43;;;15.10;42.60;;;;;;20762;6828;117121;-72
2023/03/22 00:15:47;;;;;;;4.03;3.72;;;14.50;42.80;;;;;;20758;6828;120754;-72
2023/03/22 00:18:11;;;;;;;4.32;4.03;;;14.50;42.80;;;;;;20515;6828;337026;-72
2023/03/22 00:20:36;;;;;;;3.90;3.70;;;14.60;43.30;;;;;;20539;6828;307911;-72
2023/03/22 00:23:01;;;;;;;3.80;3.50;;;14.80;43.10;;;;;;20771;6828;116970;-73
2023/03/22 00:25:27;;;;;;;4.10;3.90;;;14.60;42.90;;;;;;20549;6828;279180;-73
2023/03/22 00:27:52;;;;;;;4.12;3.83;;;14.60;42.90;;;;;;20769;6828;117072;-72
2023/03/22 00:30:18;;;;;;;4.12;3.92;;;14.40;43.00;;;;;;20540;6828;283378;-72
2023/03/22 00:32:44;;;;;;;3.87;3.67;;;14.40;43.60;;;;;;20770;6828;117343;-72
2023/03/22 00:35:09;;;;;;;3.93;3.63;;;14.20;43.60;;;;;;20775;6828;117086;-73
2023/03/22 00:37:37;;;;;;;3.85;3.55;;;13.90;43.80;;;;;;20561;6826;308004;-73
2023/03/22 00:40:00;;;;;;;4.40;3.85;;;14.00;44.60;;;;;;20541;6827;289716;-73
2023/03/22 00:42:26;;;;;;;3.60;3.40;;;14.20;44.00;;;;;;20780;6827;117055;-73
2023/03/22 00:44:51;;;;;;;3.17;3.00;;;14.10;43.90;;;;;;20776;6827;117537;-73
2023/03/22 00:47:17;;;;;;;3.57;3.27;;;13.70;44.10;;;;;;20773;6827;117577;-73
2023/03/22 00:49:42;;;;;;;3.80;3.50;;;13.40;44.50;;;;;;20560;6827;339515;-73
2023/03/22 00:52:08;;;;;;;3.25;3.05;;;13.60;45.00;;;;;;20772;6827;123376;-73
2023/03/22 00:54:33;;;;;;;3.53;3.33;;;13.50;44.70;;;;;;20563;6827;307311;-72
2023/03/22 00:56:59;;;;;;;3.60;3.40;;;13.70;45.00;;;;;;20770;6827;120818;-73
2023/03/22 00:59:25;;;;;;;3.70;3.40;;;13.60;44.80;;;;;;20572;6827;279153;-73
2023/03/22 01:01:50;;;;;;;3.67;3.47;;;13.70;45.20;;;;;;20771;6827;117135;-73
2023/03/22 01:04:16;;;;;;;3.80;3.50;;;13.50;44.90;;;;;;20538;6827;309837;-73
2023/03/22 01:06:43;;;;;;;3.57;3.27;;;13.60;45.10;;;;;;20775;6827;117225;-73
2023/03/22 01:09:13;;;;;;;3.50;3.30;;;13.50;45.00;;;;;;20773;6827;120892;-73
2023/03/22 01:11:34;;;;;;;3.55;3.33;;;13.30;45.30;;;;;;20564;6827;307226;-73
2023/03/22 01:14:00;;;;;;;3.93;3.70;;;13.40;45.80;;;;;;20566;6828;294663;-73
2023/03/22 01:16:25;;;;;;;4.13;3.87;;;13.70;45.30;;;;;;20578;6828;279764;-73
2023/03/22 01:18:51;;;;;;;3.87;3.57;;;13.90;44.80;;;;;;20772;6828;117057;-73
2023/03/22 01:21:16;;;;;;;4.37;3.93;;;13.70;44.70;;;;;;20555;6828;303230;-73
2023/03/22 01:23:42;;;;;;;5.75;3.65;;;13.70;45.00;;;;;;20767;6828;117112;-73
2023/03/22 01:26:07;;;;;;;4.40;4.10;;;13.50;44.90;;;;;;20539;6828;311136;-73
2023/03/22 01:28:33;;;;;;;3.90;3.60;;;13.50;44.90;;;;;;20771;6828;117454;-72
2023/03/22 01:31:02;;;;;;;3.50;3.30;;;13.30;44.80;;;;;;20768;6828;117402;-73
2023/03/22 01:33:28;;;;;;;3.87;3.67;;;13.00;45.10;;;;;;20769;6828;120236;-73
2023/03/22 01:35:53;;;;;;;3.75;3.55;;;12.70;45.30;;;;;;20560;6828;313092;-73
2023/03/22 01:38:20;;;;;;;3.83;3.63;;;13.20;45.60;;;;;;20541;6828;338977;-72
2023/03/22 01:40:45;;;;;;;3.77;3.47;;;13.20;45.60;;;;;;20758;6828;117301;-73
2023/03/22 01:43:16;;;;;;;4.18;3.87;;;13.00;45.30;;;;;;20548;6828;308545;-72
2023/03/22 01:45:42;;;;;;;3.83;3.63;;;12.90;45.40;;;;;;20762;6828;117612;-72
2023/03/22 01:48:14;;;;;;;3.60;3.40;;;12.90;45.40;;;;;;20525;6826;309474;-73
2023/03/22 01:50:41;;;;;;;3.70;3.40;;;13.00;45.80;;;;;;20738;6827;119287;-72
2023/03/22 01:53:05;;;;;;;4.30;4.10;;;12.80;45.70;;;;;;20543;6827;307073;-72
2023/03/22 01:55:32;;;;;;;4.03;3.83;;;13.10;45.60;;;;;;20557;6827;337010;-72
2023/03/22 01:57:57;;;;;;;3.90;3.70;;;13.10;45.50;;;;;;20739;6827;117138;-72
2023/03/22 02:00:22;;;;;;;4.27;3.87;;;12.90;45.40;;;;;;20765;6827;117226;-72
2023/03/22 02:02:48;;;;;;;4.13;3.90;;;12.60;45.80;;;;;;20539;6827;308269;-71
2023/03/22 02:05:14;;;;;;;3.83;3.43;;;12.60;46.10;;;;;;20757;6827;117446;-71
2023/03/22 02:07:40;;;;;;;3.70;3.50;;;12.60;46.10;;;;;;20761;6827;117669;-72
2023/03/22 02:10:11;;;;;;;4.30;3.97;;;12.30;46.40;;;;;;20522;6827;307973;-72
2023/03/22 02:12:57;;;;;;;4.40;4.00;;;12.40;46.80;;;;;;20740;6827;117308;-72
2023/03/22 02:15:26;;;;;;;4.43;4.12;;;12.40;46.60;;;;;;20552;6827;321479;-73
2023/03/22 02:17:58;;;;;;;4.20;3.85;;;12.50;46.90;;;;;;20522;6827;337039;-72
2023/03/22 02:20:47;;;;;;;4.40;4.00;;;12.80;46.40;;;;;;20720;6827;120898;-73
2023/03/22 02:23:35;;;;;;;4.00;3.80;;;12.70;46.20;;;;;;20549;6827;312442;-73
2023/03/22 02:26:27;;;;;;;3.83;3.53;;;12.70;46.10;;;;;;19982;6828;311445;-73
2023/03/22 02:29:07;;;;;;;3.67;3.47;;;13.00;45.80;;;;;;20748;6828;117962;-72
2023/03/22 02:31:52;;;;;;;3.60;3.40;;;12.70;46.10;;;;;;20751;6828;117405;-72
2023/03/22 02:34:38;;;;;;;3.43;3.30;;;12.30;46.20;;;;;;20741;6828;120464;-73
2023/03/22 02:37:11;;;;;;;4.18;3.97;;;12.00;46.50;;;;;;20543;6828;312022;-72
2023/03/22 02:39:43;;;;;;;4.80;4.50;;;12.10;46.90;;;;;;20554;6828;282444;-72
2023/03/22 02:42:15;;;;;;;5.97;5.37;;;12.40;46.60;;;;;;20725;6828;117989;-72
2023/03/22 02:45:00;;;;;;;8.20;6.97;;;12.30;46.40;;;;;;20734;6828;117774;-72
2023/03/22 02:47:37;;;;;;;12.00;9.00;;;12.00;46.70;;;;;;20757;6828;121208;-72
2023/03/22 02:50:05;;;;;;;16.80;11.90;;;11.70;47.00;;;;;;20531;6828;281682;-72
2023/03/22 02:52:31;;;;;;;15.27;11.02;;;12.20;47.70;;;;;;20512;6828;309861;-72
2023/03/22 02:54:56;;;;;;;14.10;9.40;;;12.20;47.00;;;;;;20754;6828;117486;-72
2023/03/22 02:57:42;;;;;;;10.63;8.55;;;12.10;46.80;;;;;;20500;6828;336872;-72
2023/03/22 03:00:11;;;;;;;8.23;6.90;;;12.10;47.00;;;;;;20736;6826;117424;-72
2023/03/22 03:02:40;;;;;;;6.77;5.80;;;12.00;46.90;;;;;;20734;6827;118432;-71
2023/03/22 03:05:05;;;;;;;6.00;5.37;;;11.70;47.20;;;;;;20747;6827;116933;-71
2023/03/22 03:07:32;;;;;;;7.00;5.90;;;11.50;47.50;;;;;;20454;6827;307399;-72
2023/03/22 03:09:58;;;;;;;5.80;5.30;;;11.60;48.10;;;;;;20536;6827;337101;-72
2023/03/22 03:12:24;;;;;;;5.33;4.87;;;12.30;47.30;;;;;;20500;6827;308374;-72
2023/03/22 03:14:50;;;;;;;5.30;5.00;;;12.30;47.20;;;;;;20548;6827;307083;-71
2023/03/22 03:17:22;;;;;;;4.97;4.57;;;12.30;46.70;;;;;;20764;6827;122700;-72
2023/03/22 03:19:48;;;;;;;4.60;4.20;;;11.90;47.10;;;;;;20773;6827;117937;-72
2023/03/22 03:22:27;;;;;;;4.95;4.62;;;11.90;47.10;;;;;;20525;6827;338241;-72
2023/03/22 03:25:00;;;;;;;4.62;4.32;;;11.90;47.60;;;;;;20525;6827;277641;-72
2023/03/22 03:27:32;;;;;;;4.47;4.23;;;12.20;47.30;;;;;;20729;6827;117707;-72
2023/03/22 03:29:58;;;;;;;3.93;3.63;;;11.70;47.50;;;;;;20693;6827;117096;-73
2023/03/22 03:32:44;;;;;;;4.33;3.77;;;11.70;47.50;;;;;;20744;6827;117365;-73
2023/03/22 03:35:24;;;;;;;4.67;4.37;;;11.40;47.90;;;;;;20555;6827;282492;-72
2023/03/22 03:37:51;;;;;;;4.30;4.00;;;11.60;48.30;;;;;;20555;6828;278005;-72
2023/03/22 03:40:20;;;;;;;4.60;4.30;;;12.00;47.90;;;;;;20531;6828;308527;-72
2023/03/22 03:42:45;;;;;;;4.40;4.10;;;12.20;47.40;;;;;;20514;6828;312310;-72
2023/03/22 03:45:11;;;;;;;3.67;3.47;;;12.40;46.90;;;;;;20757;6828;118560;-71
2023/03/22 03:47:37;;;;;;;4.70;4.27;;;12.10;46.90;;;;;;20554;6828;280230;-72
2023/03/22 03:50:05;;;;;;;4.37;4.07;;;12.10;47.30;;;;;;20548;6828;337103;-72
2023/03/22 03:52:31;;;;;;;3.67;3.33;;;12.30;47.00;;;;;;20758;6828;117814;-72
2023/03/22 03:54:57;;;;;;;4.07;3.78;;;12.10;47.00;;;;;;20551;6828;312599;-72
2023/03/22 03:57:23;;;;;;;3.60;3.40;;;11.90;47.50;;;;;;20739;6828;117675;-72
2023/03/22 03:59:49;;;;;;;3.90;3.60;;;11.80;47.30;;;;;;20741;6828;118339;-72
2023/03/22 04:02:15;;;;;;;4.15;3.92;;;11.60;47.80;;;;;;20715;6828;124096;-71
2023/03/22 04:04:41;;;;;;;4.10;3.80;;;11.30;48.10;;;;;;20744;6828;118251;-72
2023/03/22 04:07:06;;;;;;;3.63;3.43;;;11.10;48.30;;;;;;20738;6828;117522;-71
2023/03/22 04:09:32;;;;;;;3.53;3.33;;;10.80;48.70;;;;;;20742;6828;117341;-72
2023/03/22 04:11:58;;;;;;;4.30;4.00;;;10.70;48.60;;;;;;20516;6826;279268;-72
2023/03/22 04:14:24;;;;;;;4.70;4.40;;;11.00;48.90;;;;;;20556;6827;302009;-72
2023/03/22 04:16:50;;;;;;;4.77;4.07;;;11.40;48.10;;;;;;20767;6827;117061;-72
2023/03/22 04:19:15;;;;;;;4.70;4.40;;;11.40;48.40;;;;;;20550;6827;308378;-72
2023/03/22 04:21:41;;;;;;;4.15;3.85;;;11.50;48.00;;;;;;20788;6827;118251;-73
2023/03/22 04:24:07;;;;;;;4.10;3.90;;;11.30;47.80;;;;;;20768;6827;151324;-73
2023/03/22 04:26:34;;;;;;;3.63;3.33;;;11.10;48.10;;;;;;20756;6827;120130;-73
2023/03/22 04:29:01;;;;;;;3.47;3.27;;;10.80;48.40;;;;;;20745;6827;117067;-73
2023/03/22 04:31:25;;;;;;;3.75;3.55;;;10.40;49.00;;;;;;20728;6827;117860;-73
2023/03/22 04:33:55;;;;;;;3.10;3.00;;;10.40;49.00;;;;;;20757;6827;118660;-73
2023/03/22 04:36:17;;;;;;;3.83;3.37;;;10.30;49.20;;;;;;20733;6827;124625;-73
2023/03/22 04:38:42;;;;;;;3.53;3.22;;;10.20;49.40;;;;;;20760;6827;117125;-73
2023/03/22 04:41:08;;;;;;;3.97;3.37;;;10.10;49.60;;;;;;20753;6827;120142;-73
2023/03/22 04:43:34;;;;;;;4.00;3.70;;;10.10;49.80;;;;;;20754;6827;117202;-73
2023/03/22 04:46:00;;;;;;;4.23;3.67;;;10.00;49.80;;;;;;20716;6827;117198;-72
2023/03/22 04:48:26;;;;;;;3.90;3.70;;;9.90;51.00;;;;;;20538;6827;285089;-73
2023/03/22 04:50:52;;;;;;;4.47;3.80;;;10.20;50.90;;;;;;20748;6828;116921;-73
2023/03/22 04:53:15;;;;;;;3.80;3.60;;;10.20;50.20;;;;;;20741;6828;123010;-73
2023/03/22 04:55:41;;;;;;;4.10;3.80;;;10.10;50.30;;;;;;20552;6828;278032;-73
2023/03/22 04:58:07;;;;;;;3.93;3.67;;;10.30;50.50;;;;;;20739;6828;120012;-73
2023/03/22 05:00:32;;;;;;;4.10;3.80;;;10.30;50.10;;;;;;20769;6828;117786;-73
2023/03/22 05:03:00;;;;;;;4.30;3.90;;;10.10;50.40;;;;;;20538;6828;282161;-73
2023/03/22 05:05:25;;;;;;;6.63;4.23;;;10.30;51.10;;;;;;20752;6828;117650;-73
2023/03/22 05:07:50;;;;;;;3.80;3.50;;;10.30;50.70;;;;;;20763;6828;120215;-73
2023/03/22 05:10:16;;;;;;;18.70;16.95;;;10.10;50.60;;;;;;20519;6828;286319;-73
2023/03/22 05:12:41;;;;;;;27.73;25.13;;;10.30;50.80;;;;;;20529;6828;307623;-73
2023/03/22 05:15:08;;;;;;;9.25;8.65;;;10.60;50.10;;;;;;20755;6828;119675;-74
2023/03/22 05:17:33;;;;;;;5.93;5.60;;;10.60;50.10;;;;;;20754;6828;122435;-75
2023/03/22 05:20:07;;;;;;;4.90;4.50;;;10.30;50.30;;;;;;20513;6828;306654;-73
2023/03/22 05:22:24;;;;;;;4.73;4.33;;;10.50;50.60;;;;;;20726;6826;117850;-73
2023/03/22 05:24:51;;;;;;;4.07;3.77;;;10.60;50.60;;;;;;20558;6827;307514;-73
2023/03/22 05:27:16;;;;;;;3.97;3.67;;;10.60;50.60;;;;;;20545;6827;307607;-71
2023/03/22 05:29:43;;;;;;;4.05;3.75;;;10.90;49.80;;;;;;20553;6827;281955;-72
2023/03/22 05:32:08;;;;;;;3.77;3.47;;;11.20;49.30;;;;;;20733;6827;117138;-72
2023/03/22 05:34:37;;;;;;;3.90;3.70;;;11.00;49.20;;;;;;20546;6827;307133;-70
2023/03/22 05:37:02;;;;;;;3.80;3.50;;;11.00;49.20;;;;;;20533;6827;345404;-70
2023/03/22 05:39:28;;;;;;;3.22;3.03;;;11.30;49.50;;;;;;20740;6827;117208;-73
2023/03/22 05:41:53;;;;;;;3.62;3.33;;;11.10;49.00;;;;;;20746;6827;117559;-71
2023/03/22 05:44:19;;;;;;;3.47;3.17;;;10.90;49.40;;;;;;20737;6827;117458;-71
2023/03/22 05:46:45;;;;;;;9.50;8.00;;;10.60;49.60;;;;;;20753;6827;117147;-71
2023/03/22 05:49:10;;;;;;;5.10;4.63;;;10.40;49.90;;;;;;20758;6827;117093;-71
2023/03/22 05:51:40;;;;;;;3.37;3.17;;;10.30;50.70;;;;;;20745;6827;118187;-71
2023/03/22 05:54:03;;;;;;;3.33;3.13;;;10.30;50.70;;;;;;20741;6827;117161;-69
2023/03/22 05:56:29;;;;;;;4.28;3.97;;;10.40;50.80;;;;;;20550;6827;341243;-70
2023/03/22 05:58:57;;;;;;;4.23;3.93;;;10.80;50.20;;;;;;20555;6827;308454;-70
2023/03/22 06:01:21;;;;;;;3.43;3.13;;;11.30;49.10;;;;;;20731;6828;118178;-69
2023/03/22 06:03:47;;;;;;;3.73;3.50;;;11.60;48.50;;;;;;20528;6828;308065;-72
2023/03/22 06:06:12;;;;;;;3.50;3.20;;;11.60;48.40;;;;;;20724;6828;117409;-76
2023/03/22 06:08:38;;;;;;;3.45;3.25;;;11.50;48.70;;;;;;20741;6828;117300;-71
2023/03/22 06:11:04;;;;;;;3.40;3.10;;;11.50;48.60;;;;;;20732;6828;124207;-71
2023/03/22 06:13:30;;;;;;;4.10;3.80;;;11.40;48.80;;;;;;20521;6828;315648;-70
2023/03/22 06:15:56;;;;;;;4.23;3.23;;;11.70;48.20;;;;;;20734;6828;117695;-71
2023/03/22 06:18:22;;;;;;;3.90;3.60;;;11.90;47.90;;;;;;20392;6828;307488;-71
2023/03/22 06:20:48;;;;;;;3.80;3.47;;;11.90;47.90;;;;;;20524;6828;279295;-73
2023/03/22 06:23:14;;;;;;;4.55;4.25;;;12.60;46.80;;;;;;20525;6828;336189;-78
2023/03/22 06:25:40;;;;;;;4.00;3.70;;;12.60;46.80;;;;;;20531;6828;341117;-74
2023/03/22 06:28:05;;;;;;;3.70;3.50;;;12.80;46.20;;;;;;20524;6828;337029;-71
2023/03/22 06:30:31;;;;;;;3.30;3.10;;;13.10;45.90;;;;;;20749;6828;116346;-72
2023/03/22 06:32:59;;;;;;;3.23;2.87;;;13.00;46.10;;;;;;20748;6828;117554;-69
2023/03/22 06:35:22;;;;;;;4.23;3.20;;;12.80;46.70;;;;;;20748;6826;117326;-71
2023/03/22 06:37:47;;;;;;;3.43;3.13;;;12.70;47.10;;;;;;20549;6827;308157;-75
2023/03/22 06:40:14;;;;;;;3.60;3.30;;;13.30;45.10;;;;;;20533;6827;279468;-71
2023/03/22 06:42:39;;;;;;;3.50;3.30;;;13.30;45.20;;;;;;20537;6827;307961;-72
2023/03/22 06:45:06;;;;;;;3.33;3.13;;;14.10;44.00;;;;;;20535;6827;312097;-72
2023/03/22 06:47:31;;;;;;;3.37;3.17;;;14.10;44.00;;;;;;20535;6827;312091;-71
2023/03/22 06:49:57;;;;;;;3.20;2.90;;;14.40;43.60;;;;;;20740;6827;117644;-71
2023/03/22 06:52:23;;;;;;;3.80;2.90;;;14.30;43.80;;;;;;20532;6827;306898;-72
2023/03/22 06:54:48;;;;;;;2.77;2.63;;;14.40;43.60;;;;;;20768;6827;121937;-71
2023/03/22 06:57:14;;;;;;;3.50;3.20;;;14.40;43.90;;;;;;20552;6827;278936;-70
2023/03/22 06:59:40;;;;;;;2.80;2.60;;;14.60;44.30;;;;;;20541;6827;307729;-71
2023/03/22 07:02:05;;;;;;;2.55;2.45;;;14.90;43.10;;;;;;20730;6827;151493;-70
2023/03/22 07:04:31;;;;;;;2.78;2.58;;;14.90;43.40;;;;;;20531;6827;294541;-71
2023/03/22 07:06:56;;;;;;;2.30;2.20;;;15.10;42.70;;;;;;20548;6827;307935;-72
2023/03/22 07:09:26;;;;;;;2.00;1.90;;;15.40;42.30;;;;;;20762;6827;117943;-71
2023/03/22 07:11:51;;;;;;;2.20;2.10;;;15.40;42.30;;;;;;20752;6827;117111;-71
2023/03/22 07:14:17;;;;;;;2.40;2.20;;;15.20;43.00;;;;;;20733;6828;117127;-70
2023/03/22 07:16:42;;;;;;;2.60;2.42;;;15.00;42.80;;;;;;20550;6828;293016;-71
2023/03/22 07:19:08;;;;;;;2.60;2.40;;;15.20;42.50;;;;;;20759;6828;118655;-71
2023/03/22 07:21:33;;;;;;;3.00;2.70;;;15.40;42.80;;;;;;20538;6828;311600;-72
2023/03/22 07:23:59;;;;;;;3.10;2.90;;;15.50;41.60;;;;;;20530;6828;277640;-75
2023/03/22 07:26:25;;;;;;;3.77;2.97;;;15.90;42.80;;;;;;20748;6828;118341;-71
2023/03/22 07:28:50;;;;;;;3.25;3.05;;;15.90;42.30;;;;;;20531;6828;308203;-71
2023/03/22 07:31:16;;;;;;;2.87;2.67;;;16.10;42.10;;;;;;20755;6828;117099;-73
2023/03/22 07:33:42;;;;;;;3.47;3.17;;;16.10;42.10;;;;;;20538;6828;341836;-71
2023/03/22 07:36:08;;;;;;;6.73;2.70;;;16.30;41.80;;;;;;20717;6828;117226;-71
2023/03/22 07:38:34;;;;;;;3.15;2.85;;;16.30;41.80;;;;;;20545;6828;307510;-71
2023/03/22 07:40:59;;;;;;;3.37;3.07;;;16.50;40.80;;;;;;20541;6828;307975;-71
2023/03/22 07:43:25;;;;;;;3.30;3.10;;;16.80;40.90;;;;;;20532;6828;282288;-71
2023/03/22 07:45:50;;;;;;;3.40;3.10;;;17.10;40.90;;;;;;20554;6826;336276;-71
2023/03/22 07:48:16;;;;;;;3.30;3.10;;;17.40;40.40;;;;;;20522;6827;311883;-71
2023/03/22 07:50:42;;;;;;;3.30;3.10;;;17.70;40.10;;;;;;20755;6827;119799;-71
2023/03/22 07:53:07;;;;;;;4.20;3.40;;;17.60;40.10;;;;;;20750;6827;117515;-71
2023/03/22 07:55:33;;;;;;;3.28;3.08;;;17.30;40.50;;;;;;20541;6827;308480;-71
2023/03/22 07:57:58;;;;;;;3.85;2.95;;;17.40;40.30;;;;;;20523;6827;338645;-71
2023/03/22 08:00:25;;;;;;;2.95;2.75;;;17.60;40.20;;;;;;20755;6827;117753;-70
2023/03/22 08:02:50;;;;;;;3.17;2.87;;;17.60;40.20;;;;;;20746;6827;118858;-71
2023/03/22 08:05:16;;;;;;;3.00;2.70;;;17.50;40.20;;;;;;20555;6827;315254;-71
2023/03/22 08:07:41;;;;;;;2.40;2.30;;;17.60;38.80;;;;;;20768;6827;122874;-70
2023/03/22 08:10:07;;;;;;;3.00;2.77;;;17.70;39.60;;;;;;20745;6827;122830;-71
2023/03/22 08:12:32;;;;;;;3.07;2.87;;;17.60;40.00;;;;;;20541;6827;277634;-70
2023/03/22 08:14:58;;;;;;;3.05;2.60;;;17.90;39.00;;;;;;20534;6827;282971;-71
2023/03/22 08:17:25;;;;;;;2.73;2.53;;;18.30;38.30;;;;;;20666;6827;67305;-71
2023/03/22 08:19:49;;;;;;;2.87;2.67;;;18.30;38.40;;;;;;20561;6827;303775;-71
2023/03/22 08:22:15;;;;;;;2.40;2.20;;;18.80;36.70;;;;;;20531;6827;404817;-72
2023/03/22 08:24:41;;;;;;;4.60;2.47;;;18.80;36.60;;;;;;20549;6828;335612;-72
2023/03/22 08:27:07;;;;;;;2.70;2.33;;;19.10;35.50;;;;;;20547;6828;288087;-72
2023/03/22 08:29:32;;;;;;;2.70;2.50;;;19.30;35.10;;;;;;20743;6828;118712;-72
2023/03/22 08:32:01;;;;;;;2.27;2.10;;;19.30;35.80;;;;;;20511;6828;307477;-72
2023/03/22 08:34:23;;;;;;;1.73;1.60;;;19.40;34.80;;;;;;20752;6828;118429;-72
2023/03/22 08:36:49;;;;;;;2.12;2.00;;;19.30;35.10;;;;;;20544;6828;307549;-72
2023/03/22 08:39:14;;;;;;;1.90;1.80;;;19.30;34.50;;;;;;20764;6828;117485;-72
2023/03/22 08:41:41;;;;;;;2.87;2.17;;;19.40;34.90;;;;;;20522;6828;277594;-71
2023/03/22 08:44:06;;;;;;;2.40;1.70;;;19.40;34.80;;;;;;20743;6828;117548;-72
2023/03/22 08:46:32;;;;;;;2.20;2.10;;;19.20;35.80;;;;;;20723;6828;121633;-72
2023/03/22 08:48:59;;;;;;;1.95;1.85;;;19.20;35.80;;;;;;20547;6828;336201;-71
2023/03/22 08:51:24;;;;;;;1.93;1.83;;;19.70;35.30;;;;;;20537;6828;278494;-72
2023/03/22 08:53:50;;;;;;;2.27;1.80;;;19.70;35.30;;;;;;20754;6828;118410;-71
2023/03/22 08:56:16;;;;;;;2.10;1.90;;;19.70;35.50;;;;;;20526;6828;336663;-72
2023/03/22 08:58:45;;;;;;;4.13;1.70;;;20.00;35.20;;;;;;20773;6826;120288;-72
2023/03/22 09:01:07;;;;;;;1.90;1.80;;;20.00;34.80;;;;;;20752;6827;117021;-71
2023/03/22 09:03:33;;;;;;;2.30;1.98;;;19.90;35.10;;;;;;20541;6827;314472;-71
2023/03/22 09:05:58;;;;;;;2.78;1.80;;;20.00;35.20;;;;;;20745;6827;117315;-72
2023/03/22 09:08:24;;;;;;;4.20;3.90;;;20.10;35.50;;;;;;20767;6827;117455;-71
2023/03/22 09:10:51;;;;;;;3.67;1.92;;;20.00;35.90;;;;;;20549;6827;307524;-72
2023/03/22 09:13:17;;;;;;;1.95;1.70;;;20.60;33.90;;;;;;20544;6827;307074;-74
2023/03/22 09:15:43;;;;;;;1.97;1.67;;;20.60;33.80;;;;;;20758;6827;117185;-75
2023/03/22 09:18:10;;;;;;;1.80;1.70;;;20.50;34.90;;;;;;20742;6827;120895;-73
2023/03/22 09:20:35;;;;;;;1.50;1.40;;;20.50;34.90;;;;;;20753;6827;117279;-73
2023/03/22 09:23:00;;;;;;;1.80;1.25;;;20.40;35.50;;;;;;20537;6827;336131;-74
2023/03/22 09:25:26;;;;;;;1.57;1.47;;;20.60;34.80;;;;;;20756;6827;117043;-74
2023/03/22 09:27:51;;;;;;;1.40;1.37;;;20.70;34.90;;;;;;20552;6827;283089;-73
2023/03/22 09:30:17;;;;;;;1.37;1.27;;;20.90;34.40;;;;;;20741;6827;117903;-73
2023/03/22 09:32:43;;;;;;;2.47;1.00;;;20.90;34.90;;;;;;20748;6827;117230;-73
2023/03/22 09:35:09;;;;;;;1.25;1.15;;;20.90;34.90;;;;;;20540;6828;308424;-73
2023/03/22 09:37:34;;;;;;;1.60;1.10;;;21.10;34.80;;;;;;20748;6828;117162;-73
2023/03/22 09:40:00;;;;;;;1.08;0.93;;;21.20;34.90;;;;;;20742;6828;121270;-73
2023/03/22 09:42:36;;;;;;;1.20;1.20;;;21.20;34.80;;;;;;20752;6828;117534;-73
2023/03/22 09:45:01;;;;;;;1.00;0.90;;;21.10;35.00;;;;;;20719;6828;117471;-73
2023/03/22 09:47:34;;;;;;;1.50;0.90;;;21.00;35.10;;;;;;20543;6828;311528;-73
2023/03/22 09:50:01;;;;;;;1.10;1.00;;;21.30;34.10;;;;;;20731;6828;123121;-72
2023/03/22 09:52:26;;;;;;;1.53;1.17;;;21.40;34.00;;;;;;20730;6828;117254;-72
2023/03/22 09:54:52;;;;;;;1.08;0.98;;;21.30;33.90;;;;;;20557;6828;308072;-72
2023/03/22 09:57:35;;;;;;;1.10;1.00;;;21.50;33.30;;;;;;20768;6828;117034;-73
2023/03/22 10:00:11;;;;;;;1.87;1.00;;;21.60;33.50;;;;;;20527;6828;337082;-72
2023/03/22 10:02:38;;;;;;;2.10;1.10;;;21.80;32.70;;;;;;20740;6828;118006;-73
2023/03/22 10:05:20;;;;;;;1.27;1.08;;;21.90;33.10;;;;;;20525;6828;318114;-72
2023/03/22 10:08:13;;;;;;;2.63;1.10;;;22.10;32.10;;;;;;20551;6828;283420;-72
2023/03/22 10:10:42;;;;;;;1.30;0.90;;;22.40;31.40;;;;;;20539;6826;281782;-72
2023/03/22 10:13:20;;;;;;;0.90;0.80;;;22.70;30.70;;;;;;20536;6827;336800;-72
2023/03/22 10:15:45;;;;;;;1.50;0.73;;;22.80;30.60;;;;;;20754;6827;118674;-74
2023/03/22 10:18:18;;;;;;;1.43;0.80;;;22.70;31.60;;;;;;20518;6827;307696;-72
2023/03/22 10:21:10;;;;;;;0.70;0.70;;;22.70;30.90;;;;;;20562;6827;281762;-73
2023/03/22 10:23:38;;;;;;;1.48;0.80;;;22.90;31.20;;;;;;20557;6827;306889;-72
2023/03/22 10:26:04;;;;;;;0.70;0.70;;;23.30;29.90;;;;;;20728;6827;117825;-72
2023/03/22 10:28:39;;;;;;;0.80;0.70;;;23.20;30.20;;;;;;20546;6827;311345;-72
2023/03/22 10:31:04;;;;;;;0.60;0.60;;;23.10;29.30;;;;;;20759;6827;117102;-72
2023/03/22 10:33:36;;;;;;;1.17;0.80;;;23.00;29.80;;;;;;20541;6827;277804;-73
2023/03/22 10:36:02;;;;;;;0.70;0.70;;;22.90;29.50;;;;;;20622;6827;117296;-75
2023/03/22 10:38:27;;;;;;;0.90;0.90;;;22.70;29.90;;;;;;20752;6827;118960;-75
2023/03/22 10:40:53;;;;;;;2.67;1.00;;;22.40;30.10;;;;;;20759;6827;117250;-75
2023/03/22 10:43:21;;;;;;;1.13;0.90;;;22.10;30.40;;;;;;20739;6827;117262;-74
2023/03/22 10:45:47;;;;;;;0.80;0.80;;;21.80;30.50;;;;;;20762;6827;117806;-74
2023/03/22 10:48:12;;;;;;;0.77;0.77;;;21.60;30.70;;;;;;20532;6828;304677;-75
2023/03/22 10:50:39;;;;;;;1.00;0.90;;;21.80;29.90;;;;;;20379;6828;119267;-78
2023/03/22 10:53:05;;;;;;;2.70;1.10;;;21.90;30.20;;;;;;20743;6828;121399;-75
2023/03/22 10:55:31;;;;;;;1.03;0.93;;;21.90;30.60;;;;;;20542;6828;337082;-73
2023/03/22 10:57:57;;;;;;;0.77;0.75;;;22.10;29.70;;;;;;20541;6828;308468;-78
2023/03/22 11:00:24;;;;;;;0.97;0.90;;;22.70;29.20;;;;;;20238;6828;307841;-72
2023/03/22 11:02:50;;;;;;;1.10;1.10;;;22.80;29.60;;;;;;20706;6828;118494;-74
2023/03/22 11:05:22;;;;;;;3.03;0.80;;;22.80;29.50;;;;;;20737;6828;117090;-74
2023/03/22 11:07:48;;;;;;;0.70;0.70;;;22.70;29.70;;;;;;20689;6828;117323;-73
2023/03/22 11:10:23;;;;;;;0.85;0.85;;;22.50;30.10;;;;;;20522;6828;307328;-75
2023/03/22 11:12:49;;;;;;;0.70;0.70;;;22.80;30.00;;;;;;20706;6828;118843;-74
2023/03/22 11:15:31;;;;;;;0.90;0.90;;;22.80;29.40;;;;;;20526;6828;329010;-74
2023/03/22 11:17:57;;;;;;;0.70;0.70;;;23.00;28.60;;;;;;20507;6828;307486;-74
2023/03/22 11:20:23;;;;;;;0.80;0.80;;;23.30;28.30;;;;;;20552;6826;311182;-74
2023/03/22 11:22:48;;;;;;;1.17;0.80;;;23.50;28.00;;;;;;20539;6827;305235;-74
2023/03/22 11:25:19;;;;;;;1.10;1.00;;;23.50;27.90;;;;;;20756;6827;117042;-75
2023/03/22 11:27:53;;;;;;;1.03;1.03;;;23.50;28.40;;;;;;20738;6827;119735;-73
2023/03/22 11:30:22;;;;;;;1.10;1.00;;;23.20;28.80;;;;;;20479;6827;280892;-74
2023/03/22 11:32:48;;;;;;;1.02;0.93;;;23.30;28.80;;;;;;20518;6827;338128;-74
2023/03/22 11:35:17;;;;;;;0.67;0.67;;;23.50;28.60;;;;;;20532;6827;281476;-74
2023/03/22 11:37:46;;;;;;;0.70;0.70;;;23.80;28.00;;;;;;20739;6827;117992;-76
2023/03/22 11:40:32;;;;;;;1.33;0.70;;;23.70;28.20;;;;;;20746;6827;120967;-78
2023/03/22 11:43:07;;;;;;;0.83;0.70;;;23.50;28.20;;;;;;20846;6700;118039;-73
2023/03/22 11:45:43;;;;;;;1.00;0.90;;;23.30;28.40;;;;;;20787;6700;304558;-74
2023/03/22 11:48:22;;;;;;;0.97;0.70;;;23.40;27.40;;;;;;20979;6700;117256;-77
2023/03/22 11:50:58;;;;;;;0.63;0.63;;;23.30;28.20;;;;;;20994;6700;119231;-74
2023/03/22 11:53:34;;;;;;;2.60;1.00;;;23.20;28.00;;;;;;20834;6747;117463;-73
2023/03/22 11:56:09;;;;;;;1.10;1.10;;;23.10;28.40;;;;;;20879;6730;118544;-73
2023/03/22 11:59:08;;;;;;;5.10;3.90;;;23.00;28.50;;;;;;20949;6718;117269;-74
2023/03/22 12:01:50;;;;;;;2.17;2.07;;;23.00;28.60;;;;;;20411;6753;119175;-72
2023/03/22 12:04:26;;;;;;;1.10;0.87;;;22.80;28.50;;;;;;20718;6711;308353;-73
2023/03/22 12:07:01;;;;;;;3.70;3.50;;;22.80;27.70;;;;;;20970;6711;116854;-72
2023/03/22 12:09:38;;;;;;;7.53;7.03;;;22.80;28.00;;;;;;20964;6711;116818;-73
2023/03/22 12:12:14;;;;;;;0.90;0.90;;;22.50;28.20;;;;;;20656;6711;335714;-74
2023/03/22 12:14:51;;;;;;;1.83;1.73;;;22.60;27.90;;;;;;20990;6750;118315;-74
2023/03/22 12:17:46;;;;;;;1.20;1.20;;;22.60;27.50;;;;;;20766;6697;305465;-72
2023/03/22 12:20:48;;;;;;;1.50;0.90;;;22.60;27.50;;;;;;20773;6697;276523;-74
2023/03/22 12:23:24;;;;;;;0.90;0.90;;;22.90;27.80;;;;;;20588;6697;304087;-74
2023/03/22 12:26:16;;;;;;;0.90;0.87;;;23.20;27.80;;;;;;20672;6711;280669;-75
2023/03/22 12:28:53;;;;;;;0.80;0.80;;;23.60;27.70;;;;;;20690;6729;282120;-73
2023/03/22 12:31:28;;;;;;;0.70;0.70;;;23.60;27.10;;;;;;20729;6699;311104;-75
2023/03/22 12:34:07;;;;;;;0.80;0.70;;;23.70;26.70;;;;;;20739;6697;304643;-74
2023/03/22 12:36:59;;;;;;;1.15;0.90;;;23.80;26.50;;;;;;20775;6698;284206;-75
2023/03/22 12:39:33;;;;;;;0.87;0.70;;;23.90;26.00;;;;;;20926;6722;118474;-72
2023/03/22 12:42:17;;;;;;;0.63;0.63;;;23.60;26.50;;;;;;20813;6703;117699;-72